sensor_id;sensor_type;location;lat;lon;timestamp;pressure;altitude;pressure_sealevel;temperature;humidity
70198;BME280;57582;-34.876;138.628;2024-01-07T00:02:59;100289;;;27.41;64.32
70198;BME280;57582;-34.876;138.628;2024-01-07T00:06:01;100290;;;27.46;63.92
70198;BME280;57582;-34.876;138.628;2024-01-07T00:08:59;100293;;;27.60;63.95
70198;BME280;57582;-34.876;138.628;2024-01-07T00:11:59;100287;;;27.67;63.80
70198;BME280;57582;-34.876;138.628;2024-01-07T00:14:59;100293;;;27.74;63.11
70198;BME280;57582;-34.876;138.628;2024-01-07T00:17:59;100282;;;27.77;63.33
70198;BME280;57582;-34.876;138.628;2024-01-07T00:20:59;100286;;;27.63;63.95
70198;BME280;57582;-34.876;138.628;2024-01-07T00:23:59;100293;;;27.67;63.73
70198;BME280;57582;-34.876;138.628;2024-01-07T00:26:59;100288;;;27.74;63.95
70198;BME280;57582;-34.876;138.628;2024-01-07T00:30:02;100285;;;27.81;63.66
70198;BME280;57582;-34.876;138.628;2024-01-07T00:32:59;100286;;;28.03;63.67
70198;BME280;57582;-34.876;138.628;2024-01-07T00:35:59;100280;;;28.40;63.10
70198;BME280;57582;-34.876;138.628;2024-01-07T00:38:59;100276;;;28.60;60.87
70198;BME280;57582;-34.876;138.628;2024-01-07T00:42:01;100282;;;28.82;61.28
70198;BME280;57582;-34.876;138.628;2024-01-07T00:44:59;100276;;;28.99;60.02
70198;BME280;57582;-34.876;138.628;2024-01-07T00:48:00;100269;;;28.96;60.49
70198;BME280;57582;-34.876;138.628;2024-01-07T00:51:00;100274;;;29.06;60.86
70198;BME280;57582;-34.876;138.628;2024-01-07T00:53:59;100269;;;29.04;60.45
70198;BME280;57582;-34.876;138.628;2024-01-07T00:56:59;100270;;;28.95;60.09
70198;BME280;57582;-34.876;138.628;2024-01-07T01:00:00;100282;;;29.05;60.31
70198;BME280;57582;-34.876;138.628;2024-01-07T01:02:59;100288;;;29.04;59.49
70198;BME280;57582;-34.876;138.628;2024-01-07T01:05:59;100288;;;28.98;59.81
70198;BME280;57582;-34.876;138.628;2024-01-07T01:08:59;100299;;;28.91;60.12
70198;BME280;57582;-34.876;138.628;2024-01-07T01:12:01;100301;;;28.33;61.03
70198;BME280;57582;-34.876;138.628;2024-01-07T01:14:59;100306;;;28.14;61.33
70198;BME280;57582;-34.876;138.628;2024-01-07T01:17:59;100302;;;27.96;62.11
70198;BME280;57582;-34.876;138.628;2024-01-07T01:20:59;100304;;;27.55;63.31
70198;BME280;57582;-34.876;138.628;2024-01-07T01:23:59;100302;;;27.47;64.00
70198;BME280;57582;-34.876;138.628;2024-01-07T01:26:59;100307;;;27.52;64.03
70198;BME280;57582;-34.876;138.628;2024-01-07T01:30:01;100302;;;27.55;63.29
70198;BME280;57582;-34.876;138.628;2024-01-07T01:32:59;100304;;;27.72;63.07
70198;BME280;57582;-34.876;138.628;2024-01-07T01:36:03;100316;;;27.81;62.09
70198;BME280;57582;-34.876;138.628;2024-01-07T01:38:59;100325;;;27.68;61.90
70198;BME280;57582;-34.876;138.628;2024-01-07T01:41:59;100332;;;27.34;62.46
70198;BME280;57582;-34.876;138.628;2024-01-07T01:44:59;100350;;;26.90;63.38
70198;BME280;57582;-34.876;138.628;2024-01-07T01:48:00;100362;;;26.54;63.98
70198;BME280;57582;-34.876;138.628;2024-01-07T01:50:59;100361;;;25.99;65.13
70198;BME280;57582;-34.876;138.628;2024-01-07T01:54:01;100365;;;25.79;65.48
70198;BME280;57582;-34.876;138.628;2024-01-07T01:56:59;100375;;;25.66;66.09
70198;BME280;57582;-34.876;138.628;2024-01-07T02:00:03;100381;;;24.91;66.54
70198;BME280;57582;-34.876;138.628;2024-01-07T02:02:59;100391;;;24.48;67.78
70198;BME280;57582;-34.876;138.628;2024-01-07T02:06:00;100392;;;24.39;68.00
70198;BME280;57582;-34.876;138.628;2024-01-07T02:08:59;100381;;;24.17;68.26
70198;BME280;57582;-34.876;138.628;2024-01-07T02:12:01;100375;;;23.97;68.90
70198;BME280;57582;-34.876;138.628;2024-01-07T02:14:59;100374;;;24.13;69.41
70198;BME280;57582;-34.876;138.628;2024-01-07T02:18:00;100377;;;24.33;68.74
70198;BME280;57582;-34.876;138.628;2024-01-07T02:20:59;100364;;;24.57;67.77
70198;BME280;57582;-34.876;138.628;2024-01-07T02:24:03;100373;;;24.77;67.02
70198;BME280;57582;-34.876;138.628;2024-01-07T02:26:59;100356;;;25.02;65.90
70198;BME280;57582;-34.876;138.628;2024-01-07T02:30:01;100352;;;25.12;65.36
70198;BME280;57582;-34.876;138.628;2024-01-07T02:33:01;100360;;;25.11;65.60
70198;BME280;57582;-34.876;138.628;2024-01-07T02:36:00;100354;;;25.33;65.13
70198;BME280;57582;-34.876;138.628;2024-01-07T02:38:59;100357;;;25.33;64.34
70198;BME280;57582;-34.876;138.628;2024-01-07T02:42:00;100358;;;25.44;63.93
70198;BME280;57582;-34.876;138.628;2024-01-07T02:44:59;100348;;;25.58;63.51
70198;BME280;57582;-34.876;138.628;2024-01-07T02:48:01;100345;;;25.78;63.74
70198;BME280;57582;-34.876;138.628;2024-01-07T02:51:00;100337;;;26.09;63.30
70198;BME280;57582;-34.876;138.628;2024-01-07T02:54:00;100335;;;26.32;61.67
70198;BME280;57582;-34.876;138.628;2024-01-07T02:56:59;100326;;;26.30;61.30
70198;BME280;57582;-34.876;138.628;2024-01-07T03:00:00;100321;;;26.52;61.09
70198;BME280;57582;-34.876;138.628;2024-01-07T03:02:59;100308;;;26.87;60.79
70198;BME280;57582;-34.876;138.628;2024-01-07T03:06:00;100308;;;27.19;59.62
70198;BME280;57582;-34.876;138.628;2024-01-07T03:08:59;100298;;;27.31;58.69
70198;BME280;57582;-34.876;138.628;2024-01-07T03:12:00;100282;;;27.43;58.24
70198;BME280;57582;-34.876;138.628;2024-01-07T03:14:59;100271;;;27.50;58.80
70198;BME280;57582;-34.876;138.628;2024-01-07T03:18:01;100271;;;27.69;59.17
70198;BME280;57582;-34.876;138.628;2024-01-07T03:20:59;100276;;;27.87;58.12
70198;BME280;57582;-34.876;138.628;2024-01-07T03:24:00;100270;;;28.08;56.89
70198;BME280;57582;-34.876;138.628;2024-01-07T03:26:59;100256;;;28.18;56.57
70198;BME280;57582;-34.876;138.628;2024-01-07T03:30:00;100241;;;28.37;56.24
70198;BME280;57582;-34.876;138.628;2024-01-07T03:32:59;100247;;;28.44;56.30
70198;BME280;57582;-34.876;138.628;2024-01-07T03:36:00;100247;;;28.64;56.07
70198;BME280;57582;-34.876;138.628;2024-01-07T03:38:59;100239;;;28.78;54.34
70198;BME280;57582;-34.876;138.628;2024-01-07T03:42:00;100242;;;28.68;55.58
70198;BME280;57582;-34.876;138.628;2024-01-07T03:44:59;100234;;;28.78;54.07
70198;BME280;57582;-34.876;138.628;2024-01-07T03:48:00;100234;;;28.85;54.56
70198;BME280;57582;-34.876;138.628;2024-01-07T03:50:59;100236;;;29.05;54.34
70198;BME280;57582;-34.876;138.628;2024-01-07T03:54:01;100240;;;29.34;52.10
70198;BME280;57582;-34.876;138.628;2024-01-07T03:56:59;100242;;;29.51;53.01
70198;BME280;57582;-34.876;138.628;2024-01-07T04:00:00;100242;;;29.73;52.60
70198;BME280;57582;-34.876;138.628;2024-01-07T04:03:00;100236;;;29.85;51.84
70198;BME280;57582;-34.876;138.628;2024-01-07T04:06:00;100228;;;30.19;50.72
70198;BME280;57582;-34.876;138.628;2024-01-07T04:08:59;100227;;;30.31;51.44
70198;BME280;57582;-34.876;138.628;2024-01-07T04:12:02;100211;;;30.49;49.40
70198;BME280;57582;-34.876;138.628;2024-01-07T04:14:59;100215;;;30.38;49.56
70198;BME280;57582;-34.876;138.628;2024-01-07T04:18:01;100206;;;30.44;50.41
70198;BME280;57582;-34.876;138.628;2024-01-07T04:20:59;100200;;;30.42;49.72
70198;BME280;57582;-34.876;138.628;2024-01-07T04:24:00;100203;;;30.34;49.30
70198;BME280;57582;-34.876;138.628;2024-01-07T04:26:59;100201;;;30.26;49.83
70198;BME280;57582;-34.876;138.628;2024-01-07T04:30:00;100213;;;30.23;49.92
70198;BME280;57582;-34.876;138.628;2024-01-07T04:33:00;100212;;;30.14;51.01
70198;BME280;57582;-34.876;138.628;2024-01-07T04:36:00;100201;;;29.93;50.75
70198;BME280;57582;-34.876;138.628;2024-01-07T04:39:00;100204;;;29.92;51.08
70198;BME280;57582;-34.876;138.628;2024-01-07T04:42:00;100201;;;29.90;50.93
70198;BME280;57582;-34.876;138.628;2024-01-07T04:45:00;100206;;;29.68;51.14
70198;BME280;57582;-34.876;138.628;2024-01-07T04:48:00;100199;;;29.72;51.39
70198;BME280;57582;-34.876;138.628;2024-01-07T04:51:00;100203;;;29.75;51.66
70198;BME280;57582;-34.876;138.628;2024-01-07T04:54:00;100192;;;29.49;52.45
70198;BME280;57582;-34.876;138.628;2024-01-07T04:57:00;100196;;;29.55;52.03
70198;BME280;57582;-34.876;138.628;2024-01-07T05:00:01;100198;;;29.70;51.96
70198;BME280;57582;-34.876;138.628;2024-01-07T05:03:00;100190;;;29.80;51.27
70198;BME280;57582;-34.876;138.628;2024-01-07T05:06:00;100178;;;29.81;50.81
70198;BME280;57582;-34.876;138.628;2024-01-07T05:09:01;100180;;;29.79;51.38
70198;BME280;57582;-34.876;138.628;2024-01-07T05:12:00;100176;;;29.65;51.49
70198;BME280;57582;-34.876;138.628;2024-01-07T05:15:00;100177;;;29.62;51.32
70198;BME280;57582;-34.876;138.628;2024-01-07T05:18:01;100179;;;29.58;50.97
70198;BME280;57582;-34.876;138.628;2024-01-07T05:21:00;100178;;;29.38;51.91
70198;BME280;57582;-34.876;138.628;2024-01-07T05:24:00;100184;;;29.27;52.16
70198;BME280;57582;-34.876;138.628;2024-01-07T05:27:00;100185;;;29.00;52.52
70198;BME280;57582;-34.876;138.628;2024-01-07T05:30:00;100188;;;29.09;53.05
70198;BME280;57582;-34.876;138.628;2024-01-07T05:33:00;100187;;;29.08;52.47
70198;BME280;57582;-34.876;138.628;2024-01-07T05:36:00;100195;;;28.92;52.72
70198;BME280;57582;-34.876;138.628;2024-01-07T05:39:00;100205;;;28.64;53.11
70198;BME280;57582;-34.876;138.628;2024-01-07T05:42:00;100206;;;28.18;54.58
70198;BME280;57582;-34.876;138.628;2024-01-07T05:45:00;100197;;;28.13;55.05
70198;BME280;57582;-34.876;138.628;2024-01-07T05:48:02;100206;;;28.20;55.02
70198;BME280;57582;-34.876;138.628;2024-01-07T05:51:00;100202;;;28.40;54.61
70198;BME280;57582;-34.876;138.628;2024-01-07T05:54:02;100199;;;28.53;53.93
70198;BME280;57582;-34.876;138.628;2024-01-07T05:57:00;100199;;;28.58;54.20
70198;BME280;57582;-34.876;138.628;2024-01-07T06:00:00;100198;;;28.60;54.05
70198;BME280;57582;-34.876;138.628;2024-01-07T06:03:01;100197;;;28.40;54.84
70198;BME280;57582;-34.876;138.628;2024-01-07T06:06:00;100201;;;28.26;55.03
70198;BME280;57582;-34.876;138.628;2024-01-07T06:09:00;100202;;;28.36;55.16
70198;BME280;57582;-34.876;138.628;2024-01-07T06:12:02;100205;;;28.47;54.91
70198;BME280;57582;-34.876;138.628;2024-01-07T06:15:00;100195;;;28.49;54.02
70198;BME280;57582;-34.876;138.628;2024-01-07T06:18:01;100200;;;28.39;54.16
70198;BME280;57582;-34.876;138.628;2024-01-07T06:21:00;100204;;;28.31;54.50
70198;BME280;57582;-34.876;138.628;2024-01-07T06:24:00;100214;;;27.93;54.90
70198;BME280;57582;-34.876;138.628;2024-01-07T06:27:00;100215;;;27.90;55.55
70198;BME280;57582;-34.876;138.628;2024-01-07T06:30:00;100216;;;27.62;56.04
70198;BME280;57582;-34.876;138.628;2024-01-07T06:33:00;100209;;;27.58;56.39
70198;BME280;57582;-34.876;138.628;2024-01-07T06:36:00;100220;;;27.48;56.23
70198;BME280;57582;-34.876;138.628;2024-01-07T06:39:00;100218;;;27.43;56.41
70198;BME280;57582;-34.876;138.628;2024-01-07T06:42:00;100231;;;27.14;57.14
70198;BME280;57582;-34.876;138.628;2024-01-07T06:45:00;100223;;;26.85;57.80
70198;BME280;57582;-34.876;138.628;2024-01-07T06:48:00;100220;;;26.24;59.54
70198;BME280;57582;-34.876;138.628;2024-01-07T06:51:00;100220;;;26.01;60.19
70198;BME280;57582;-34.876;138.628;2024-01-07T06:54:01;100235;;;26.03;60.53
70198;BME280;57582;-34.876;138.628;2024-01-07T06:57:00;100244;;;26.09;60.25
70198;BME280;57582;-34.876;138.628;2024-01-07T07:00:00;100248;;;25.94;60.71
70198;BME280;57582;-34.876;138.628;2024-01-07T07:03:00;100257;;;25.83;60.82
70198;BME280;57582;-34.876;138.628;2024-01-07T07:06:00;100266;;;25.79;60.71
70198;BME280;57582;-34.876;138.628;2024-01-07T07:09:00;100264;;;25.57;60.92
70198;BME280;57582;-34.876;138.628;2024-01-07T07:12:00;100272;;;25.35;61.55
70198;BME280;57582;-34.876;138.628;2024-01-07T07:15:00;100268;;;25.14;62.32
70198;BME280;57582;-34.876;138.628;2024-01-07T07:18:03;100268;;;25.04;63.00
70198;BME280;57582;-34.876;138.628;2024-01-07T07:21:00;100271;;;25.14;62.76
70198;BME280;57582;-34.876;138.628;2024-01-07T07:24:00;100266;;;25.08;62.78
70198;BME280;57582;-34.876;138.628;2024-01-07T07:27:00;100263;;;25.20;63.10
70198;BME280;57582;-34.876;138.628;2024-01-07T07:30:00;100268;;;25.21;62.88
70198;BME280;57582;-34.876;138.628;2024-01-07T07:33:00;100267;;;25.22;62.31
70198;BME280;57582;-34.876;138.628;2024-01-07T07:36:00;100263;;;25.11;62.42
70198;BME280;57582;-34.876;138.628;2024-01-07T07:39:00;100268;;;25.26;62.31
70198;BME280;57582;-34.876;138.628;2024-01-07T07:42:00;100270;;;25.26;62.20
70198;BME280;57582;-34.876;138.628;2024-01-07T07:45:00;100283;;;25.24;62.07
70198;BME280;57582;-34.876;138.628;2024-01-07T07:48:01;100291;;;25.25;61.81
70198;BME280;57582;-34.876;138.628;2024-01-07T07:51:00;100300;;;25.19;62.25
70198;BME280;57582;-34.876;138.628;2024-01-07T07:54:00;100305;;;25.01;62.82
70198;BME280;57582;-34.876;138.628;2024-01-07T07:57:00;100296;;;24.89;62.77
70198;BME280;57582;-34.876;138.628;2024-01-07T08:00:03;100300;;;24.70;63.30
70198;BME280;57582;-34.876;138.628;2024-01-07T08:03:00;100314;;;24.80;63.41
70198;BME280;57582;-34.876;138.628;2024-01-07T08:06:00;100315;;;25.03;62.85
70198;BME280;57582;-34.876;138.628;2024-01-07T08:09:00;100327;;;25.13;62.37
70198;BME280;57582;-34.876;138.628;2024-01-07T08:12:00;100334;;;24.99;62.14
70198;BME280;57582;-34.876;138.628;2024-01-07T08:15:00;100336;;;24.90;62.69
70198;BME280;57582;-34.876;138.628;2024-01-07T08:18:01;100331;;;24.70;63.53
70198;BME280;57582;-34.876;138.628;2024-01-07T08:21:00;100334;;;24.66;63.72
70198;BME280;57582;-34.876;138.628;2024-01-07T08:24:00;100344;;;24.58;63.96
70198;BME280;57582;-34.876;138.628;2024-01-07T08:27:01;100356;;;24.47;64.09
70198;BME280;57582;-34.876;138.628;2024-01-07T08:30:00;100364;;;24.30;64.59
70198;BME280;57582;-34.876;138.628;2024-01-07T08:33:00;100375;;;24.40;64.53
70198;BME280;57582;-34.876;138.628;2024-01-07T08:36:00;100379;;;24.53;64.12
70198;BME280;57582;-34.876;138.628;2024-01-07T08:39:01;100377;;;24.73;63.50
70198;BME280;57582;-34.876;138.628;2024-01-07T08:42:00;100358;;;24.65;63.42
70198;BME280;57582;-34.876;138.628;2024-01-07T08:45:00;100362;;;24.42;64.40
70198;BME280;57582;-34.876;138.628;2024-01-07T08:48:02;100365;;;24.38;64.35
70198;BME280;57582;-34.876;138.628;2024-01-07T08:51:00;100371;;;24.30;64.79
70198;BME280;57582;-34.876;138.628;2024-01-07T08:54:00;100375;;;24.22;65.25
70198;BME280;57582;-34.876;138.628;2024-01-07T08:57:00;100388;;;24.25;65.17
70198;BME280;57582;-34.876;138.628;2024-01-07T09:00:00;100394;;;24.20;65.47
70198;BME280;57582;-34.876;138.628;2024-01-07T09:03:00;100394;;;24.12;65.53
70198;BME280;57582;-34.876;138.628;2024-01-07T09:06:00;100401;;;24.06;65.58
70198;BME280;57582;-34.876;138.628;2024-01-07T09:09:00;100401;;;24.06;65.80
70198;BME280;57582;-34.876;138.628;2024-01-07T09:12:00;100406;;;23.96;65.76
70198;BME280;57582;-34.876;138.628;2024-01-07T09:15:00;100414;;;23.94;65.96
70198;BME280;57582;-34.876;138.628;2024-01-07T09:18:00;100420;;;23.90;65.81
70198;BME280;57582;-34.876;138.628;2024-01-07T09:21:00;100424;;;24.07;65.67
70198;BME280;57582;-34.876;138.628;2024-01-07T09:24:02;100426;;;24.21;64.87
70198;BME280;57582;-34.876;138.628;2024-01-07T09:27:00;100426;;;24.18;64.81
70198;BME280;57582;-34.876;138.628;2024-01-07T09:30:00;100423;;;24.19;64.73
70198;BME280;57582;-34.876;138.628;2024-01-07T09:33:00;100418;;;24.13;64.48
70198;BME280;57582;-34.876;138.628;2024-01-07T09:36:00;100432;;;24.05;64.81
70198;BME280;57582;-34.876;138.628;2024-01-07T09:39:00;100440;;;24.06;65.32
70198;BME280;57582;-34.876;138.628;2024-01-07T09:42:00;100433;;;24.12;65.19
70198;BME280;57582;-34.876;138.628;2024-01-07T09:45:01;100441;;;24.04;65.17
70198;BME280;57582;-34.876;138.628;2024-01-07T09:48:02;100433;;;24.09;64.49
70198;BME280;57582;-34.876;138.628;2024-01-07T09:51:00;100449;;;23.99;64.06
70198;BME280;57582;-34.876;138.628;2024-01-07T09:54:01;100447;;;23.89;63.86
70198;BME280;57582;-34.876;138.628;2024-01-07T09:57:01;100457;;;23.83;63.82
70198;BME280;57582;-34.876;138.628;2024-01-07T10:00:01;100464;;;23.77;63.75
70198;BME280;57582;-34.876;138.628;2024-01-07T10:03:00;100474;;;23.80;63.44
70198;BME280;57582;-34.876;138.628;2024-01-07T10:06:02;100483;;;23.72;63.76
70198;BME280;57582;-34.876;138.628;2024-01-07T10:09:00;100492;;;23.84;63.33
70198;BME280;57582;-34.876;138.628;2024-01-07T10:12:00;100493;;;23.78;63.13
70198;BME280;57582;-34.876;138.628;2024-01-07T10:15:00;100495;;;23.76;62.96
70198;BME280;57582;-34.876;138.628;2024-01-07T10:18:05;100507;;;23.79;62.68
70198;BME280;57582;-34.876;138.628;2024-01-07T10:21:02;100518;;;23.80;62.63
70198;BME280;57582;-34.876;138.628;2024-01-07T10:24:16;100515;;;23.83;62.32
70198;BME280;57582;-34.876;138.628;2024-01-07T10:27:00;100521;;;23.77;62.24
70198;BME280;57582;-34.876;138.628;2024-01-07T10:30:02;100530;;;23.92;61.96
70198;BME280;57582;-34.876;138.628;2024-01-07T10:33:00;100527;;;23.90;61.88
70198;BME280;57582;-34.876;138.628;2024-01-07T10:36:04;100530;;;23.87;61.83
70198;BME280;57582;-34.876;138.628;2024-01-07T10:39:00;100526;;;23.69;62.10
70198;BME280;57582;-34.876;138.628;2024-01-07T10:42:01;100519;;;23.64;62.30
70198;BME280;57582;-34.876;138.628;2024-01-07T10:45:00;100525;;;23.56;62.58
70198;BME280;57582;-34.876;138.628;2024-01-07T10:48:02;100526;;;23.63;62.55
70198;BME280;57582;-34.876;138.628;2024-01-07T10:51:00;100529;;;23.80;62.27
70198;BME280;57582;-34.876;138.628;2024-01-07T10:54:00;100527;;;23.92;62.94
70198;BME280;57582;-34.876;138.628;2024-01-07T10:58:02;100538;;;24.16;61.00
70198;BME280;57582;-34.876;138.628;2024-01-07T11:00:01;100545;;;24.38;60.32
70198;BME280;57582;-34.876;138.628;2024-01-07T11:06:04;100547;;;24.54;59.42
70198;BME280;57582;-34.876;138.628;2024-01-07T11:09:06;100539;;;24.50;59.10
70198;BME280;57582;-34.876;138.628;2024-01-07T11:12:03;100542;;;24.48;59.41
70198;BME280;57582;-34.876;138.628;2024-01-07T11:15:01;100537;;;24.40;59.60
70198;BME280;57582;-34.876;138.628;2024-01-07T11:18:00;100544;;;24.54;59.32
70198;BME280;57582;-34.876;138.628;2024-01-07T11:21:00;100548;;;24.72;58.82
70198;BME280;57582;-34.876;138.628;2024-01-07T11:24:01;100562;;;24.82;58.23
70198;BME280;57582;-34.876;138.628;2024-01-07T11:27:01;100561;;;24.95;57.64
70198;BME280;57582;-34.876;138.628;2024-01-07T11:30:05;100561;;;25.03;57.59
70198;BME280;57582;-34.876;138.628;2024-01-07T11:33:00;100560;;;25.18;57.15
70198;BME280;57582;-34.876;138.628;2024-01-07T11:36:00;100570;;;25.31;56.72
70198;BME280;57582;-34.876;138.628;2024-01-07T11:39:00;100575;;;25.42;56.13
70198;BME280;57582;-34.876;138.628;2024-01-07T11:42:01;100571;;;25.48;56.60
70198;BME280;57582;-34.876;138.628;2024-01-07T11:45:00;100581;;;25.52;55.79
70198;BME280;57582;-34.876;138.628;2024-01-07T11:48:01;100595;;;25.54;55.77
70198;BME280;57582;-34.876;138.628;2024-01-07T11:51:00;100592;;;25.61;55.61
70198;BME280;57582;-34.876;138.628;2024-01-07T11:54:01;100582;;;25.71;55.41
70198;BME280;57582;-34.876;138.628;2024-01-07T11:57:00;100581;;;25.76;55.06
70198;BME280;57582;-34.876;138.628;2024-01-07T12:00:02;100581;;;25.75;54.88
70198;BME280;57582;-34.876;138.628;2024-01-07T12:03:00;100570;;;25.69;54.98
70198;BME280;57582;-34.876;138.628;2024-01-07T12:06:01;100584;;;25.64;55.14
70198;BME280;57582;-34.876;138.628;2024-01-07T12:09:00;100592;;;25.56;55.28
70198;BME280;57582;-34.876;138.628;2024-01-07T12:12:01;100594;;;25.47;55.46
70198;BME280;57582;-34.876;138.628;2024-01-07T12:15:00;100593;;;25.30;55.76
70198;BME280;57582;-34.876;138.628;2024-01-07T12:18:01;100588;;;25.11;56.21
70198;BME280;57582;-34.876;138.628;2024-01-07T12:21:00;100595;;;24.97;56.38
70198;BME280;57582;-34.876;138.628;2024-01-07T12:24:01;100595;;;24.89;56.61
70198;BME280;57582;-34.876;138.628;2024-01-07T12:27:04;100609;;;24.66;57.06
70198;BME280;57582;-34.876;138.628;2024-01-07T12:30:01;100615;;;24.42;57.92
70198;BME280;57582;-34.876;138.628;2024-01-07T12:33:00;100617;;;24.19;58.55
70198;BME280;57582;-34.876;138.628;2024-01-07T12:36:01;100614;;;24.00;59.25
70198;BME280;57582;-34.876;138.628;2024-01-07T12:39:01;100616;;;23.97;59.21
70198;BME280;57582;-34.876;138.628;2024-01-07T12:42:01;100619;;;23.85;59.51
70198;BME280;57582;-34.876;138.628;2024-01-07T12:45:01;100611;;;23.86;59.33
70198;BME280;57582;-34.876;138.628;2024-01-07T12:48:01;100619;;;23.91;59.45
70198;BME280;57582;-34.876;138.628;2024-01-07T12:51:00;100618;;;23.92;59.22
70198;BME280;57582;-34.876;138.628;2024-01-07T12:54:01;100612;;;23.87;59.29
70198;BME280;57582;-34.876;138.628;2024-01-07T12:57:00;100617;;;23.79;59.60
70198;BME280;57582;-34.876;138.628;2024-01-07T13:00:02;100616;;;23.55;60.18
70198;BME280;57582;-34.876;138.628;2024-01-07T13:03:00;100619;;;23.51;60.31
70198;BME280;57582;-34.876;138.628;2024-01-07T13:06:01;100618;;;23.41;60.55
70198;BME280;57582;-34.876;138.628;2024-01-07T13:09:00;100624;;;23.43;60.99
70198;BME280;57582;-34.876;138.628;2024-01-07T13:12:01;100621;;;23.38;60.83
70198;BME280;57582;-34.876;138.628;2024-01-07T13:15:00;100621;;;23.48;60.88
70198;BME280;57582;-34.876;138.628;2024-01-07T13:18:01;100617;;;23.67;60.55
70198;BME280;57582;-34.876;138.628;2024-01-07T13:21:00;100617;;;23.67;60.35
70198;BME280;57582;-34.876;138.628;2024-01-07T13:24:01;100621;;;23.63;60.36
70198;BME280;57582;-34.876;138.628;2024-01-07T13:27:00;100619;;;23.61;60.44
70198;BME280;57582;-34.876;138.628;2024-01-07T13:30:01;100626;;;23.73;60.19
70198;BME280;57582;-34.876;138.628;2024-01-07T13:33:00;100632;;;23.79;59.88
70198;BME280;57582;-34.876;138.628;2024-01-07T13:36:01;100623;;;23.94;59.90
70198;BME280;57582;-34.876;138.628;2024-01-07T13:39:00;100636;;;24.09;59.57
70198;BME280;57582;-34.876;138.628;2024-01-07T13:42:02;100639;;;24.20;59.07
70198;BME280;57582;-34.876;138.628;2024-01-07T13:45:00;100638;;;24.36;58.70
70198;BME280;57582;-34.876;138.628;2024-01-07T13:48:01;100643;;;24.51;58.20
70198;BME280;57582;-34.876;138.628;2024-01-07T13:51:00;100642;;;24.61;57.34
70198;BME280;57582;-34.876;138.628;2024-01-07T13:54:03;100644;;;24.62;57.02
70198;BME280;57582;-34.876;138.628;2024-01-07T13:57:00;100639;;;24.74;56.99
70198;BME280;57582;-34.876;138.628;2024-01-07T14:00:01;100638;;;24.85;56.42
70198;BME280;57582;-34.876;138.628;2024-01-07T14:03:00;100633;;;24.97;56.03
70198;BME280;57582;-34.876;138.628;2024-01-07T14:06:01;100625;;;25.02;55.32
70198;BME280;57582;-34.876;138.628;2024-01-07T14:09:01;100626;;;25.09;55.46
70198;BME280;57582;-34.876;138.628;2024-01-07T14:12:02;100632;;;25.18;55.30
70198;BME280;57582;-34.876;138.628;2024-01-07T14:15:00;100633;;;25.24;54.96
70198;BME280;57582;-34.876;138.628;2024-01-07T14:18:02;100637;;;25.18;54.84
70198;BME280;57582;-34.876;138.628;2024-01-07T14:21:00;100637;;;25.13;54.87
70198;BME280;57582;-34.876;138.628;2024-01-07T14:24:01;100650;;;25.07;54.92
70198;BME280;57582;-34.876;138.628;2024-01-07T14:27:00;100636;;;25.02;54.72
70198;BME280;57582;-34.876;138.628;2024-01-07T14:30:01;100640;;;24.95;54.79
70198;BME280;57582;-34.876;138.628;2024-01-07T14:33:01;100640;;;24.91;55.08
70198;BME280;57582;-34.876;138.628;2024-01-07T14:36:02;100639;;;24.87;54.95
70198;BME280;57582;-34.876;138.628;2024-01-07T14:39:01;100642;;;24.84;55.25
70198;BME280;57582;-34.876;138.628;2024-01-07T14:42:01;100638;;;24.76;55.29
70198;BME280;57582;-34.876;138.628;2024-01-07T14:45:01;100643;;;24.71;54.91
70198;BME280;57582;-34.876;138.628;2024-01-07T14:48:03;100641;;;24.55;55.57
70198;BME280;57582;-34.876;138.628;2024-01-07T14:51:01;100643;;;24.39;55.77
70198;BME280;57582;-34.876;138.628;2024-01-07T14:54:01;100640;;;24.21;56.15
70198;BME280;57582;-34.876;138.628;2024-01-07T14:57:01;100639;;;23.93;56.92
70198;BME280;57582;-34.876;138.628;2024-01-07T15:00:01;100632;;;23.79;57.35
70198;BME280;57582;-34.876;138.628;2024-01-07T15:03:01;100627;;;23.59;57.77
70198;BME280;57582;-34.876;138.628;2024-01-07T15:06:03;100629;;;23.53;58.14
70198;BME280;57582;-34.876;138.628;2024-01-07T15:09:01;100637;;;23.59;58.03
70198;BME280;57582;-34.876;138.628;2024-01-07T15:12:01;100624;;;23.58;57.77
70198;BME280;57582;-34.876;138.628;2024-01-07T15:15:02;100630;;;23.26;58.06
70198;BME280;57582;-34.876;138.628;2024-01-07T15:18:01;100613;;;23.16;58.11
70198;BME280;57582;-34.876;138.628;2024-01-07T15:21:02;100603;;;22.93;58.48
70198;BME280;57582;-34.876;138.628;2024-01-07T15:24:01;100607;;;22.93;58.57
70198;BME280;57582;-34.876;138.628;2024-01-07T15:27:01;100603;;;22.75;58.99
70198;BME280;57582;-34.876;138.628;2024-01-07T15:30:01;100602;;;22.85;58.96
70198;BME280;57582;-34.876;138.628;2024-01-07T15:33:01;100598;;;22.86;58.80
70198;BME280;57582;-34.876;138.628;2024-01-07T15:36:03;100607;;;22.93;58.56
70198;BME280;57582;-34.876;138.628;2024-01-07T15:39:01;100608;;;22.85;58.49
70198;BME280;57582;-34.876;138.628;2024-01-07T15:42:03;100611;;;22.83;58.68
70198;BME280;57582;-34.876;138.628;2024-01-07T15:45:01;100610;;;22.63;59.19